Portada
METAR-TAF:

METAR-TAF

Aeroports :

Bridgetown, Barbados

latitud: 13-04N, longitud: 059-29W, altitud: 50 m

Observació

L'informe es va fer fa 35 minuts, a les 21:00 UTC
Vent 9 kt del Est
Temperatura 28°C
Humitat 74%
Pressió 1013 hPa
Visibilitat 10 km o més
Núvols disperses a una alçada de 2400 ft

METAR: TBPB 272100Z 10009KT 9999 SCT024 28/23 Q1013 NOSIG

Hora: 17:35 (21:35 UTC)

Pronòstic

L'informe es va fer fa 4 hores i 35 minuts, a les 17:00 UTC
Pronòstic vàlid del 27 a les 18 UTC al 28 a les 18 UTC
Vent 15 kt del Est/Sud-Est
Visibilitat 10 km o més
Núvols disperses a una alçada de 2200 ft

TAF: TBPB 271700Z 2718/2818 11015KT 9999 SCT022

Observacions i pronòstics meteorològics de més de 4000 aeroports (METAR i TAF).

Les estacions disponibles són els punts grocs i vermells al mapa.

Posi el ratolí al punt desitjat per veure el nom de l'estació.

Feu clic per veure les observacions i els pronòstics meteorològics.

Per canviar el mapa: feu clic els botons verds amb una creu de color negre per apropar; al botó verd amb un guió per allunyar la imatge; o en les fletxes verdes per a mapes adjacents.


METAR-TAF: